createdAt,value
2018-01-12T00:00:31.881Z,4.19
2018-01-12T00:01:31.791Z,4.22
2018-01-12T00:02:31.708Z,4.28
2018-01-12T00:03:31.623Z,4.37
2018-01-12T00:04:31.584Z,4.32
2018-01-12T00:05:31.452Z,4.35
2018-01-12T00:06:31.370Z,4.41
2018-01-12T00:07:31.286Z,4.42
2018-01-12T00:08:31.201Z,4.35
2018-01-12T00:09:31.128Z,4.41
2018-01-12T00:10:31.033Z,4.38
2018-01-12T00:11:30.947Z,4.37
2018-01-12T00:12:30.864Z,4.42
2018-01-12T00:13:30.779Z,4.44
2018-01-12T00:14:30.700Z,4.45
2018-01-12T00:15:30.612Z,4.49
2018-01-12T00:16:30.532Z,4.41
2018-01-12T00:17:30.443Z,4.44
2018-01-12T00:18:30.358Z,4.45
2018-01-12T00:19:30.276Z,4.48
2018-01-12T00:20:30.193Z,4.44
2018-01-12T00:21:30.106Z,4.53
2018-01-12T00:22:30.025Z,4.45
2018-01-12T00:23:29.938Z,4.50
2018-01-12T00:24:29.853Z,4.50
2018-01-12T00:25:29.768Z,4.56
2018-01-12T00:26:29.685Z,4.56
2018-01-12T00:27:29.599Z,4.55
2018-01-12T00:28:29.516Z,4.56
2018-01-12T00:29:29.433Z,4.62
2018-01-12T00:30:29.347Z,4.56
2018-01-12T00:31:29.273Z,4.50
2018-01-12T00:32:29.185Z,4.58
2018-01-12T00:33:29.097Z,4.58
2018-01-12T00:34:29.014Z,4.60
2018-01-12T00:35:28.931Z,4.52
2018-01-12T00:36:28.842Z,4.52
2018-01-12T00:37:28.758Z,4.49
2018-01-12T00:38:28.672Z,4.53
2018-01-12T00:39:28.589Z,4.44
2018-01-12T00:40:28.505Z,4.42
2018-01-12T00:41:28.423Z,4.49
2018-01-12T00:42:28.338Z,4.50
2018-01-12T00:43:28.253Z,4.44
2018-01-12T00:44:28.168Z,4.50
2018-01-12T00:45:28.083Z,4.52
2018-01-12T00:46:27.999Z,4.60
2018-01-12T00:47:27.914Z,4.56
2018-01-12T00:48:27.832Z,4.50
2018-01-12T00:49:27.747Z,4.59
2018-01-12T00:50:27.663Z,4.41
2018-01-12T00:51:27.579Z,4.48
2018-01-12T00:52:27.497Z,4.41
2018-01-12T00:53:27.411Z,4.42
2018-01-12T00:54:27.326Z,4.38
2018-01-12T00:55:27.242Z,4.37
2018-01-12T00:56:27.179Z,4.55
2018-01-12T00:57:27.074Z,4.38
2018-01-12T00:58:26.990Z,4.40
2018-01-12T00:59:26.909Z,4.31
2018-01-12T01:00:26.820Z,4.42
2018-01-12T01:01:26.828Z,4.40
2018-01-12T01:02:26.653Z,4.41
2018-01-12T01:03:26.569Z,4.38
2018-01-12T01:04:26.483Z,4.42
2018-01-12T01:05:26.400Z,4.41
2018-01-12T01:06:26.315Z,4.45
2018-01-12T01:07:26.231Z,4.45
2018-01-12T01:08:26.190Z,4.38
2018-01-12T01:09:26.061Z,4.44
2018-01-12T01:10:25.978Z,4.40
2018-01-12T01:11:25.894Z,4.52
2018-01-12T01:12:25.811Z,4.50
2018-01-12T01:13:25.725Z,4.45
2018-01-12T01:14:25.645Z,4.50
2018-01-12T01:15:25.556Z,4.50
2018-01-12T01:16:25.477Z,4.45
2018-01-12T01:17:25.389Z,4.55
2018-01-12T01:18:25.305Z,4.48
2018-01-12T01:19:25.221Z,4.48
2018-01-12T01:20:25.136Z,4.48
2018-01-12T01:21:25.052Z,4.44
2018-01-12T01:22:24.969Z,4.44
2018-01-12T01:23:24.884Z,4.49
2018-01-12T01:24:24.799Z,4.38
2018-01-12T01:25:24.716Z,4.50
2018-01-12T01:26:24.629Z,4.41
2018-01-12T01:27:24.549Z,4.42
2018-01-12T01:28:24.463Z,4.44
2018-01-12T01:29:24.379Z,4.44
2018-01-12T01:30:24.294Z,4.41
2018-01-12T01:31:24.215Z,4.48
2018-01-12T01:32:24.126Z,4.52
2018-01-12T01:33:25.942Z,4.52
2018-01-12T01:34:23.956Z,4.53
2018-01-12T01:35:23.873Z,4.48
2018-01-12T01:36:23.787Z,4.45
2018-01-12T01:37:23.706Z,4.48
2018-01-12T01:38:23.621Z,4.50
2018-01-12T01:39:23.536Z,4.44
2018-01-12T01:40:23.454Z,4.45
2018-01-12T01:41:23.370Z,4.42
2018-01-12T01:42:23.282Z,4.44
2018-01-12T01:43:23.206Z,4.45
2018-01-12T01:44:23.114Z,4.49
2018-01-12T01:45:23.029Z,4.48
2018-01-12T01:46:22.947Z,4.44
2018-01-12T01:47:22.861Z,4.50
2018-01-12T01:48:22.778Z,4.50
2018-01-12T01:49:22.694Z,4.50
2018-01-12T01:50:22.609Z,4.58
2018-01-12T01:51:22.526Z,4.53
2018-01-12T01:52:22.441Z,4.55
2018-01-12T01:53:22.355Z,4.53
2018-01-12T01:54:22.273Z,4.60
2018-01-12T01:55:22.190Z,4.60
2018-01-12T01:56:22.108Z,4.59
2018-01-12T01:57:22.020Z,4.60
2018-01-12T01:58:21.937Z,4.66
2018-01-12T01:59:21.856Z,4.63
2018-01-12T02:00:21.769Z,4.63
2018-01-12T02:01:21.684Z,4.60
2018-01-12T02:02:21.603Z,4.62
2018-01-12T02:03:21.517Z,4.60
2018-01-12T02:04:21.435Z,4.60
2018-01-12T02:05:21.350Z,4.62
2018-01-12T02:06:21.263Z,4.60
2018-01-12T02:07:21.181Z,4.60
2018-01-12T02:08:21.098Z,4.56
2018-01-12T02:09:21.011Z,4.62
2018-01-12T02:10:20.930Z,4.52
2018-01-12T02:11:20.843Z,4.68
2018-01-12T02:12:20.760Z,4.62
2018-01-12T02:13:20.678Z,4.58
2018-01-12T02:14:20.591Z,4.62
2018-01-12T02:15:20.508Z,4.62
2018-01-12T02:16:20.428Z,4.63
2018-01-12T02:17:20.340Z,4.59
2018-01-12T02:18:20.254Z,4.60
2018-01-12T02:19:20.173Z,4.67
2018-01-12T02:20:20.088Z,4.70
2018-01-12T02:21:20.004Z,4.63
2018-01-12T02:22:19.920Z,4.74
2018-01-12T02:23:19.835Z,4.62
2018-01-12T02:24:19.750Z,4.63
2018-01-12T02:25:19.667Z,4.75
2018-01-12T02:26:19.582Z,4.62
2018-01-12T02:27:19.498Z,4.67
2018-01-12T02:28:19.421Z,4.82
2018-01-12T02:29:19.330Z,4.70
2018-01-12T02:30:19.247Z,4.67
2018-01-12T02:31:19.163Z,4.62
2018-01-12T02:32:19.080Z,4.62
2018-01-12T02:33:18.994Z,4.71
2018-01-12T02:34:18.911Z,4.63
2018-01-12T02:35:18.831Z,4.66
2018-01-12T02:36:18.743Z,4.71
2018-01-12T02:37:18.659Z,4.71
2018-01-12T02:38:18.577Z,4.80
2018-01-12T02:39:18.492Z,4.74
2018-01-12T02:40:18.405Z,4.78
2018-01-12T02:41:18.322Z,4.78
2018-01-12T02:42:18.238Z,4.75
2018-01-12T02:43:25.793Z,4.78
2018-01-12T02:45:11.437Z,4.78
2018-01-12T02:46:18.937Z,4.78
2018-01-12T02:48:04.579Z,4.74
2018-01-12T02:49:04.445Z,4.67
2018-01-12T02:50:57.680Z,4.73
2018-01-12T02:51:57.593Z,4.80
2018-01-12T02:53:50.877Z,4.68
2018-01-12T02:54:50.742Z,4.68
2018-01-12T02:56:43.980Z,4.66
2018-01-12T02:57:43.894Z,4.63
2018-01-12T02:59:37.177Z,4.66
2018-01-12T03:00:37.055Z,4.77
2018-01-12T03:02:30.281Z,4.73
2018-01-12T03:03:30.197Z,4.67
2018-01-12T03:05:23.477Z,4.67
2018-01-12T03:06:23.344Z,4.78
2018-01-12T03:08:16.629Z,4.66
2018-01-12T03:09:16.485Z,4.67
2018-01-12T03:11:09.721Z,4.66
2018-01-12T03:12:09.634Z,4.67
2018-01-12T03:14:02.921Z,4.78
2018-01-12T03:15:02.787Z,4.66
2018-01-12T03:16:56.029Z,4.67
2018-01-12T03:17:55.940Z,4.63
2018-01-12T03:19:49.227Z,4.63
2018-01-12T03:20:49.093Z,4.77
2018-01-12T03:21:49.008Z,4.60
2018-01-12T03:22:48.924Z,4.63
2018-01-12T03:23:48.841Z,4.73
2018-01-12T03:24:48.757Z,4.73
2018-01-12T03:25:48.672Z,4.70
2018-01-12T03:26:48.589Z,4.74
2018-01-12T03:27:48.504Z,4.63
2018-01-12T03:28:48.422Z,4.84
2018-01-12T03:29:48.387Z,4.68
2018-01-12T03:30:48.253Z,4.73
2018-01-12T03:31:48.168Z,4.73
2018-01-12T03:32:48.085Z,4.74
2018-01-12T03:33:48.005Z,4.84
2018-01-12T03:34:47.918Z,4.75
2018-01-12T03:35:47.834Z,4.78
2018-01-12T03:36:47.750Z,4.74
2018-01-12T03:37:47.667Z,4.80
2018-01-12T03:38:47.582Z,4.87
2018-01-12T03:39:47.497Z,4.82
2018-01-12T03:40:47.415Z,4.82
2018-01-12T03:41:47.331Z,4.71
2018-01-12T03:42:47.251Z,4.84
2018-01-12T03:43:47.162Z,4.80
2018-01-12T03:44:47.088Z,4.78
2018-01-12T03:45:47.009Z,4.75
2018-01-12T03:46:46.912Z,4.82
2018-01-12T03:47:46.827Z,4.77
2018-01-12T03:48:46.742Z,4.73
2018-01-12T03:49:46.661Z,4.86
2018-01-12T03:50:46.575Z,4.75
2018-01-12T03:51:46.491Z,4.87
2018-01-12T03:52:46.408Z,4.75
2018-01-12T03:53:46.324Z,4.90
2018-01-12T03:54:46.242Z,4.80
2018-01-12T03:55:46.156Z,4.80
2018-01-12T03:56:46.072Z,4.87
2018-01-12T03:57:45.989Z,4.82
2018-01-12T03:58:45.904Z,4.82
2018-01-12T03:59:45.822Z,4.74
2018-01-12T04:00:45.738Z,4.78
2018-01-12T04:01:45.653Z,4.84
2018-01-12T04:02:45.569Z,4.87
2018-01-12T04:03:45.485Z,4.86
2018-01-12T04:04:45.403Z,4.87
2018-01-12T04:05:45.317Z,4.77
2018-01-12T04:06:45.236Z,4.82
2018-01-12T04:07:45.149Z,4.73
2018-01-12T04:08:45.068Z,4.74
2018-01-12T04:09:44.983Z,4.75
2018-01-12T04:10:44.899Z,4.80
2018-01-12T04:11:44.815Z,4.80
2018-01-12T04:12:44.730Z,4.87
2018-01-12T04:13:44.647Z,4.74
2018-01-12T04:14:44.563Z,4.77
2018-01-12T04:15:44.480Z,4.78
2018-01-12T04:16:44.394Z,4.77
2018-01-12T04:17:44.320Z,4.73
2018-01-12T04:18:44.227Z,4.78
2018-01-12T04:19:44.145Z,4.74
2018-01-12T04:20:44.062Z,4.75
2018-01-12T04:21:43.978Z,4.74
2018-01-12T04:22:43.891Z,4.82
2018-01-12T04:23:43.810Z,4.71
2018-01-12T04:24:43.723Z,4.82
2018-01-12T04:25:43.641Z,4.73
2018-01-12T04:26:43.557Z,4.75
2018-01-12T04:27:43.474Z,4.84
2018-01-12T04:28:43.391Z,4.80
2018-01-12T04:29:43.306Z,4.73
2018-01-12T04:30:43.220Z,4.80
2018-01-12T04:31:43.137Z,4.80
2018-01-12T04:32:43.056Z,4.74
2018-01-12T04:33:42.969Z,4.67
2018-01-12T04:34:42.886Z,4.66
2018-01-12T04:35:42.802Z,4.62
2018-01-12T04:36:42.717Z,4.63
2018-01-12T04:37:42.635Z,4.63
2018-01-12T04:38:42.554Z,4.70
2018-01-12T04:39:42.468Z,4.55
2018-01-12T04:40:42.383Z,4.66
2018-01-12T04:41:42.300Z,4.58
2018-01-12T04:42:42.215Z,4.62
2018-01-12T04:43:42.131Z,4.66
2018-01-12T04:44:42.048Z,4.67
2018-01-12T04:45:41.966Z,4.60
2018-01-12T04:46:41.879Z,4.63
2018-01-12T04:47:41.797Z,4.62
2018-01-12T04:48:41.710Z,4.63
2018-01-12T04:49:41.628Z,4.66
2018-01-12T04:50:41.545Z,4.63
2018-01-12T04:51:41.458Z,4.67
2018-01-12T04:52:41.375Z,4.60
2018-01-12T04:53:41.292Z,4.68
2018-01-12T04:54:41.206Z,4.56
2018-01-12T04:55:41.122Z,4.66
2018-01-12T04:56:41.048Z,4.60
2018-01-12T04:57:40.957Z,4.63
2018-01-12T04:58:40.873Z,4.59
2018-01-12T04:59:40.789Z,4.56
2018-01-12T05:00:40.705Z,4.58
2018-01-12T05:01:40.620Z,4.59
2018-01-12T05:02:40.536Z,4.56
2018-01-12T05:03:40.454Z,4.58
2018-01-12T05:04:40.368Z,4.56
2018-01-12T05:05:40.284Z,4.52
2018-01-12T05:06:40.203Z,4.59
2018-01-12T05:07:40.116Z,4.67
2018-01-12T05:08:40.035Z,4.74
2018-01-12T05:09:39.952Z,4.67
2018-01-12T05:10:39.863Z,4.67
2018-01-12T05:11:39.781Z,4.60
2018-01-12T05:12:39.702Z,4.66
2018-01-12T05:13:39.622Z,4.60
2018-01-12T05:14:39.536Z,4.74
2018-01-12T05:15:39.445Z,4.63
2018-01-12T05:16:39.367Z,4.68
2018-01-12T05:17:39.279Z,4.68
2018-01-12T05:18:39.194Z,4.82
2018-01-12T05:19:39.110Z,4.75
2018-01-12T05:20:39.026Z,4.86
2018-01-12T05:21:38.944Z,4.71
2018-01-12T05:22:38.858Z,4.77
2018-01-12T05:23:38.771Z,4.73
2018-01-12T05:24:38.688Z,4.77
2018-01-12T05:25:38.609Z,4.77
2018-01-12T05:26:38.524Z,4.75
2018-01-12T05:27:38.445Z,4.77
2018-01-12T05:28:38.354Z,4.86
2018-01-12T05:29:38.269Z,4.87
2018-01-12T05:30:38.274Z,4.82
2018-01-12T05:31:38.101Z,4.89
2018-01-12T05:32:38.018Z,4.84
2018-01-12T05:33:37.936Z,4.87
2018-01-12T05:34:37.854Z,4.90
2018-01-12T05:35:37.765Z,4.87
2018-01-12T05:36:37.692Z,4.92
2018-01-12T05:37:37.599Z,4.84
2018-01-12T05:38:37.514Z,4.86
2018-01-12T05:39:37.431Z,4.89
2018-01-12T05:40:37.358Z,4.93
2018-01-12T05:41:37.268Z,4.86
2018-01-12T05:42:37.179Z,4.87
2018-01-12T05:43:37.096Z,4.89
2018-01-12T05:44:37.013Z,4.84
2018-01-12T05:45:36.968Z,4.97
2018-01-12T05:46:36.848Z,4.93
2018-01-12T05:47:36.758Z,4.99
2018-01-12T05:48:36.677Z,4.99
2018-01-12T05:49:36.592Z,4.99
2018-01-12T05:50:36.508Z,5.05
2018-01-12T05:51:36.424Z,4.99
2018-01-12T05:52:36.343Z,5.00
2018-01-12T05:53:36.257Z,4.96
2018-01-12T05:54:36.212Z,4.99
2018-01-12T05:55:36.090Z,5.00
2018-01-12T05:56:36.005Z,5.02
2018-01-12T05:57:35.921Z,4.93
2018-01-12T05:58:35.841Z,4.86
2018-01-12T05:59:35.754Z,4.92
2018-01-12T06:00:35.672Z,4.84
2018-01-12T06:01:35.589Z,4.78
2018-01-12T06:02:35.504Z,4.82
2018-01-12T06:03:35.418Z,4.87
2018-01-12T06:04:35.338Z,4.84
2018-01-12T06:05:35.253Z,4.80
2018-01-12T06:06:35.168Z,4.87
2018-01-12T06:07:35.084Z,4.86
2018-01-12T06:08:35.082Z,4.90
2018-01-12T06:09:34.918Z,4.87
2018-01-12T06:10:34.834Z,4.82
2018-01-12T06:11:34.749Z,4.87
2018-01-12T06:12:34.666Z,4.73
2018-01-12T06:13:34.582Z,4.82
2018-01-12T06:14:34.499Z,4.77
2018-01-12T06:15:34.414Z,4.84
2018-01-12T06:16:34.332Z,4.71
2018-01-12T06:17:34.251Z,4.73
2018-01-12T06:18:34.164Z,4.70
2018-01-12T06:19:34.125Z,4.70
2018-01-12T06:20:33.995Z,4.74
2018-01-12T06:21:33.912Z,4.73
2018-01-12T06:22:33.828Z,4.75
2018-01-12T06:23:33.746Z,4.73
2018-01-12T06:24:33.661Z,4.75
2018-01-12T06:25:33.576Z,4.74
2018-01-12T06:26:33.492Z,4.77
2018-01-12T06:27:33.407Z,4.87
2018-01-12T06:28:33.325Z,4.87
2018-01-12T06:29:33.245Z,4.80
2018-01-12T06:30:33.156Z,4.87
2018-01-12T06:31:33.073Z,4.87
2018-01-12T06:32:32.991Z,4.82
2018-01-12T06:33:32.915Z,4.80
2018-01-12T06:34:32.823Z,4.78
2018-01-12T06:35:32.739Z,4.84
2018-01-12T06:36:32.672Z,4.87
2018-01-12T06:38:32.506Z,4.87
2018-01-12T06:39:32.415Z,4.78
2018-01-12T06:40:32.364Z,4.89
2018-01-12T06:41:32.236Z,4.80
2018-01-12T06:42:32.153Z,4.78
2018-01-12T06:43:32.069Z,4.90
2018-01-12T06:44:31.983Z,4.82
2018-01-12T06:45:31.901Z,4.93
2018-01-12T06:46:31.817Z,4.87
2018-01-12T06:47:31.734Z,4.89
2018-01-12T06:48:31.649Z,4.87
2018-01-12T06:49:31.566Z,4.86
2018-01-12T06:50:31.482Z,4.94
2018-01-12T06:51:31.397Z,4.86
2018-01-12T06:52:31.316Z,4.90
2018-01-12T06:53:31.256Z,4.90
2018-01-12T06:54:31.144Z,4.96
2018-01-12T06:55:31.063Z,4.96
2018-01-12T06:56:30.978Z,5.02
2018-01-12T06:57:30.897Z,4.93
2018-01-12T06:58:30.811Z,5.04
2018-01-12T06:59:30.727Z,5.02
2018-01-12T07:00:30.641Z,4.90
2018-01-12T07:01:30.558Z,4.97
2018-01-12T07:02:30.485Z,4.96
2018-01-12T07:03:30.391Z,4.99
2018-01-12T07:04:30.308Z,4.92
2018-01-12T07:05:30.223Z,4.97
2018-01-12T07:06:30.138Z,4.99
2018-01-12T07:07:30.057Z,4.99
2018-01-12T07:08:29.973Z,4.97
2018-01-12T07:09:29.890Z,4.97
2018-01-12T07:10:29.805Z,4.94
2018-01-12T07:11:29.721Z,4.94
2018-01-12T07:12:29.637Z,5.02
2018-01-12T07:13:29.554Z,4.96
2018-01-12T07:14:29.469Z,4.93
2018-01-12T07:15:29.386Z,4.96
2018-01-12T07:16:29.302Z,5.00
2018-01-12T07:17:29.219Z,4.97
2018-01-12T07:18:29.139Z,4.89
2018-01-12T07:19:29.051Z,4.84
2018-01-12T07:20:28.968Z,4.87
2018-01-12T07:21:28.883Z,4.90
2018-01-12T07:22:28.799Z,4.93
2018-01-12T07:23:28.716Z,4.82
2018-01-12T07:24:28.630Z,4.93
2018-01-12T07:25:28.548Z,4.89
2018-01-12T07:26:28.463Z,4.87
2018-01-12T07:27:28.381Z,4.93
2018-01-12T07:28:28.431Z,4.86
2018-01-12T07:29:28.215Z,4.89
2018-01-12T07:30:28.127Z,4.90
2018-01-12T07:31:28.043Z,4.90
2018-01-12T07:32:27.961Z,4.84
2018-01-12T07:33:27.877Z,4.82
2018-01-12T07:34:27.793Z,4.87
2018-01-12T07:35:27.709Z,4.90
2018-01-12T07:36:27.626Z,4.89
2018-01-12T07:37:27.542Z,4.86
2018-01-12T07:38:27.457Z,4.87
2018-01-12T07:39:27.376Z,4.80
2018-01-12T07:40:27.293Z,4.86
2018-01-12T07:41:27.209Z,4.90
2018-01-12T07:42:27.125Z,4.89
2018-01-12T07:43:27.043Z,4.90
2018-01-12T07:44:26.962Z,4.93
2018-01-12T07:45:26.873Z,5.00
2018-01-12T07:46:26.786Z,4.93
2018-01-12T07:47:26.703Z,4.90
2018-01-12T07:48:26.619Z,5.02
2018-01-12T07:49:26.536Z,4.99
2018-01-12T07:50:26.455Z,4.97
2018-01-12T07:51:26.368Z,4.89
2018-01-12T07:52:26.283Z,5.02
2018-01-12T07:53:26.202Z,4.94
2018-01-12T07:54:26.118Z,4.96
2018-01-12T07:55:26.038Z,4.94
2018-01-12T07:56:25.949Z,4.96
2018-01-12T07:57:25.865Z,4.92
2018-01-12T07:58:25.786Z,4.94
2018-01-12T07:59:25.700Z,4.97
2018-01-12T08:00:25.615Z,4.89
2018-01-12T08:01:25.532Z,5.02
2018-01-12T08:02:25.446Z,4.90
2018-01-12T08:03:25.367Z,4.99
2018-01-12T08:04:25.341Z,5.04
2018-01-12T08:05:25.199Z,4.97
2018-01-12T08:06:25.110Z,4.99
2018-01-12T08:07:25.027Z,4.97
2018-01-12T08:08:24.943Z,4.97
2018-01-12T08:09:24.863Z,4.93
2018-01-12T08:10:24.776Z,4.90
2018-01-12T08:11:24.692Z,4.97
2018-01-12T08:12:24.608Z,4.92
2018-01-12T08:13:24.526Z,4.93
2018-01-12T08:14:24.440Z,4.87
2018-01-12T08:15:24.361Z,4.93
2018-01-12T08:16:24.273Z,4.99
2018-01-12T08:17:24.190Z,4.89
2018-01-12T08:18:24.107Z,4.94
2018-01-12T08:19:24.022Z,4.86
2018-01-12T08:20:23.938Z,4.86
2018-01-12T08:21:23.857Z,4.82
2018-01-12T08:22:23.772Z,4.82
2018-01-12T08:23:23.687Z,4.90
2018-01-12T08:24:23.604Z,4.77
2018-01-12T08:25:23.531Z,4.87
2018-01-12T08:26:23.435Z,4.87
2018-01-12T08:27:23.352Z,4.68
2018-01-12T08:28:23.271Z,4.78
2018-01-12T08:29:23.187Z,4.73
2018-01-12T08:30:23.101Z,4.82
2018-01-12T08:31:23.053Z,4.66
2018-01-12T08:32:22.936Z,4.63
2018-01-12T08:33:22.893Z,4.70
2018-01-12T08:34:22.766Z,4.78
2018-01-12T08:35:22.680Z,4.78
2018-01-12T08:36:22.596Z,4.70
2018-01-12T08:37:22.517Z,4.74
2018-01-12T08:38:22.431Z,4.78
2018-01-12T08:39:22.346Z,4.86
2018-01-12T08:40:22.261Z,4.87
2018-01-12T08:41:22.178Z,4.86
2018-01-12T08:42:22.098Z,4.84
2018-01-12T08:43:22.013Z,4.77
2018-01-12T08:44:21.945Z,4.86
2018-01-12T08:45:21.842Z,4.89
2018-01-12T08:46:21.758Z,4.92
2018-01-12T08:47:21.674Z,4.90
2018-01-12T08:48:21.591Z,4.89
2018-01-12T08:49:21.509Z,4.92
2018-01-12T08:50:21.424Z,4.89
2018-01-12T08:51:21.340Z,4.89
2018-01-12T08:52:21.255Z,4.97
2018-01-12T08:53:21.174Z,4.94
2018-01-12T08:54:21.087Z,4.96
2018-01-12T08:55:21.006Z,4.99
2018-01-12T08:56:20.921Z,5.00
2018-01-12T08:57:20.837Z,4.97
2018-01-12T08:58:20.756Z,5.05
2018-01-12T08:59:20.669Z,5.05
2018-01-12T09:00:20.595Z,5.07
2018-01-12T09:01:20.501Z,5.10
2018-01-12T09:02:20.420Z,5.10
2018-01-12T09:03:20.335Z,5.10
2018-01-12T09:04:20.251Z,5.08
2018-01-12T09:05:20.172Z,5.12
2018-01-12T09:06:20.083Z,5.12
2018-01-12T09:07:20.001Z,5.11
2018-01-12T09:08:19.918Z,5.12
2018-01-12T09:09:19.833Z,5.17
2018-01-12T09:10:19.751Z,5.17
2018-01-12T09:11:19.665Z,5.20
2018-01-12T09:12:19.584Z,5.20
2018-01-12T09:13:19.499Z,5.23
2018-01-12T09:14:19.415Z,5.20
2018-01-12T09:15:19.334Z,5.25
2018-01-12T09:16:19.279Z,5.25
2018-01-12T09:17:19.169Z,5.17
2018-01-12T09:18:19.081Z,5.20
2018-01-12T09:19:18.998Z,5.20
2018-01-12T09:20:18.916Z,5.23
2018-01-12T09:21:18.831Z,5.32
2018-01-12T09:22:18.749Z,5.26
2018-01-12T09:23:18.665Z,5.26
2018-01-12T09:24:18.579Z,5.28
2018-01-12T09:25:18.498Z,5.29
2018-01-12T09:26:18.413Z,5.28
2018-01-12T09:27:18.330Z,5.30
2018-01-12T09:28:18.246Z,5.17
2018-01-12T09:29:18.164Z,5.25
2018-01-12T09:30:18.079Z,5.28
2018-01-12T09:31:17.994Z,5.32
2018-01-12T09:32:17.913Z,5.30
2018-01-12T09:33:17.832Z,5.28
2018-01-12T09:34:17.745Z,5.32
2018-01-12T09:35:17.662Z,5.21
2018-01-12T09:36:17.577Z,5.29
2018-01-12T09:37:17.495Z,5.25
2018-01-12T09:38:17.411Z,5.29
2018-01-12T09:39:17.328Z,5.26
2018-01-12T09:40:17.245Z,5.23
2018-01-12T09:41:17.163Z,5.29
2018-01-12T09:42:17.079Z,5.30
2018-01-12T09:43:17.009Z,5.30
2018-01-12T09:44:16.910Z,5.25
2018-01-12T09:45:16.828Z,5.30
2018-01-12T09:46:16.741Z,5.30
2018-01-12T09:47:16.659Z,5.29
2018-01-12T09:48:16.578Z,5.33
2018-01-12T09:49:16.501Z,5.29
2018-01-12T09:50:16.410Z,5.32
2018-01-12T09:51:16.326Z,5.33
2018-01-12T09:52:16.242Z,5.30
2018-01-12T09:53:16.161Z,5.32
2018-01-12T09:54:16.075Z,5.35
2018-01-12T09:55:15.991Z,5.30
2018-01-12T09:56:15.911Z,5.41
2018-01-12T09:57:15.828Z,5.44
2018-01-12T09:58:15.742Z,5.43
2018-01-12T09:59:15.659Z,5.44
2018-01-12T10:00:15.574Z,5.33
2018-01-12T10:01:15.490Z,5.43
2018-01-12T10:02:15.408Z,5.30
2018-01-12T10:03:15.333Z,5.26
2018-01-12T10:04:15.242Z,5.28
2018-01-12T10:05:15.162Z,5.43
2018-01-12T10:06:15.074Z,5.43
2018-01-12T10:07:14.991Z,5.38
2018-01-12T10:08:14.909Z,5.51
2018-01-12T10:09:14.829Z,5.51
2018-01-12T10:10:14.742Z,5.48
2018-01-12T10:11:14.660Z,5.57
2018-01-12T10:12:14.574Z,5.56
2018-01-12T10:13:14.492Z,5.57
2018-01-12T10:14:14.408Z,5.61
2018-01-12T10:15:14.388Z,5.59
2018-01-12T10:16:14.250Z,5.59
2018-01-12T10:17:14.159Z,5.61
2018-01-12T10:18:14.074Z,5.56
2018-01-12T10:19:13.992Z,5.68
2018-01-12T10:20:13.910Z,5.54
2018-01-12T10:21:13.827Z,5.57
2018-01-12T10:22:13.779Z,5.57
2018-01-12T10:23:13.663Z,5.65
2018-01-12T10:24:13.578Z,5.69
2018-01-12T10:25:13.495Z,5.64
2018-01-12T10:26:13.415Z,5.69
2018-01-12T10:27:13.330Z,5.71
2018-01-12T10:28:13.246Z,5.72
2018-01-12T10:29:13.169Z,5.65
2018-01-12T10:30:13.079Z,5.62
2018-01-12T10:31:12.996Z,5.68
2018-01-12T10:32:12.926Z,5.64
2018-01-12T10:33:12.834Z,5.57
2018-01-12T10:34:12.748Z,5.68
2018-01-12T10:35:12.665Z,5.57
2018-01-12T10:36:12.582Z,5.57
2018-01-12T10:37:12.498Z,5.54
2018-01-12T10:38:12.415Z,5.57
2018-01-12T10:39:12.377Z,5.65
2018-01-12T10:40:12.250Z,5.61
2018-01-12T10:41:12.168Z,5.75
2018-01-12T10:42:12.087Z,5.69
2018-01-12T10:43:12.005Z,5.80
2018-01-12T10:44:11.917Z,5.79
2018-01-12T10:45:11.841Z,5.79
2018-01-12T10:46:11.751Z,5.76
2018-01-12T10:47:11.670Z,5.72
2018-01-12T10:48:11.586Z,5.72
2018-01-12T10:49:11.503Z,5.83
2018-01-12T10:50:11.421Z,5.79
2018-01-12T10:51:11.339Z,5.72
2018-01-12T10:52:11.254Z,5.75
2018-01-12T10:53:11.176Z,5.79
2018-01-12T10:54:11.086Z,5.73
2018-01-12T10:55:11.008Z,5.87
2018-01-12T10:56:10.922Z,5.82
2018-01-12T10:57:10.841Z,5.80
2018-01-12T10:58:10.756Z,5.84
2018-01-12T10:59:10.675Z,5.86
2018-01-12T11:00:10.592Z,5.97
2018-01-12T11:01:10.511Z,5.86
2018-01-12T11:02:10.426Z,5.86
2018-01-12T11:03:10.346Z,5.93
2018-01-12T11:04:10.261Z,5.90
2018-01-12T11:05:10.179Z,5.90
2018-01-12T11:06:10.096Z,5.98
2018-01-12T11:07:10.012Z,5.90
2018-01-12T11:08:09.931Z,5.91
2018-01-12T11:09:09.846Z,5.99
2018-01-12T11:10:09.763Z,5.90
2018-01-12T11:11:09.681Z,5.93
2018-01-12T11:12:09.598Z,5.90
2018-01-12T11:13:09.516Z,5.94
2018-01-12T11:14:09.434Z,5.91
2018-01-12T11:15:09.349Z,5.99
2018-01-12T11:16:09.266Z,5.87
2018-01-12T11:17:09.183Z,5.91
2018-01-12T11:18:09.101Z,5.90
2018-01-12T11:19:09.017Z,5.86
2018-01-12T11:20:08.938Z,5.89
2018-01-12T11:21:08.852Z,5.87
2018-01-12T11:22:08.770Z,5.83
2018-01-12T11:23:08.685Z,5.82
2018-01-12T11:24:08.602Z,5.86
2018-01-12T11:25:08.521Z,5.89
2018-01-12T11:26:08.436Z,5.79
2018-01-12T11:27:08.358Z,5.79
2018-01-12T11:28:08.271Z,5.83
2018-01-12T11:29:08.189Z,5.86
2018-01-12T11:30:08.108Z,5.79
2018-01-12T11:31:08.027Z,5.73
2018-01-12T11:32:07.940Z,5.80
2018-01-12T11:33:07.858Z,5.75
2018-01-12T11:34:07.776Z,5.75
2018-01-12T11:35:07.690Z,5.79
2018-01-12T11:36:07.608Z,5.82
2018-01-12T11:37:07.526Z,5.87
2018-01-12T11:38:07.444Z,5.87
2018-01-12T11:39:07.358Z,5.82
2018-01-12T11:40:07.276Z,5.86
2018-01-12T11:41:07.193Z,5.89
2018-01-12T11:42:07.113Z,5.84
2018-01-12T11:43:07.029Z,5.76
2018-01-12T11:44:06.947Z,5.84
2018-01-12T11:45:06.861Z,5.79
2018-01-12T11:46:06.782Z,5.83
2018-01-12T11:47:06.773Z,5.83
2018-01-12T11:48:06.613Z,5.75
2018-01-12T11:49:06.529Z,5.79
2018-01-12T11:50:06.451Z,5.76
2018-01-12T11:51:06.367Z,5.86
2018-01-12T11:52:06.280Z,5.79
2018-01-12T11:53:06.200Z,5.82
2018-01-12T11:54:06.116Z,5.80
2018-01-12T11:55:06.031Z,5.79
2018-01-12T11:56:05.952Z,5.69
2018-01-12T11:57:05.867Z,5.79
2018-01-12T11:58:05.782Z,5.68
2018-01-12T11:59:05.699Z,5.59
2018-01-12T12:00:05.620Z,5.66
2018-01-12T12:01:05.553Z,5.53
2018-01-12T12:02:05.453Z,5.57
2018-01-12T12:03:05.371Z,5.68
2018-01-12T12:04:05.286Z,5.62
2018-01-12T12:05:05.201Z,5.64
2018-01-12T12:06:05.120Z,5.59
2018-01-12T12:07:05.066Z,5.65
2018-01-12T12:08:04.954Z,5.65
2018-01-12T12:09:04.870Z,5.71
2018-01-12T12:10:04.788Z,5.80
2018-01-12T12:11:04.749Z,5.76
2018-01-12T12:12:04.622Z,5.75
2018-01-12T12:13:04.538Z,5.86
2018-01-12T12:14:04.460Z,5.91
2018-01-12T12:15:04.371Z,5.94
2018-01-12T12:16:04.301Z,5.90
2018-01-12T12:17:04.206Z,6.02
2018-01-12T12:18:04.122Z,5.98
2018-01-12T12:19:04.042Z,6.02
2018-01-12T12:20:03.958Z,5.98
2018-01-12T12:21:03.874Z,5.98
2018-01-12T12:22:03.790Z,5.94
2018-01-12T12:23:03.708Z,5.98
2018-01-12T12:24:03.627Z,6.01
2018-01-12T12:25:03.544Z,5.93
2018-01-12T12:26:03.716Z,5.94
2018-01-12T12:27:03.377Z,5.91
2018-01-12T12:28:03.784Z,5.93
2018-01-12T12:29:03.277Z,5.97
2018-01-12T12:30:03.532Z,6.01
2018-01-12T12:31:03.089Z,6.04
2018-01-12T12:32:03.023Z,5.99
2018-01-12T12:33:02.985Z,6.01
2018-01-12T12:34:02.849Z,5.93
2018-01-12T12:35:02.716Z,5.94
2018-01-12T12:36:02.855Z,6.09
2018-01-12T12:37:10.212Z,6.08
2018-01-12T12:38:56.844Z,5.97
2018-01-12T12:39:56.709Z,5.99
2018-01-12T12:40:56.626Z,6.02
2018-01-12T12:41:56.545Z,5.91
2018-01-12T12:42:56.472Z,6.09
2018-01-12T12:43:56.377Z,6.05
2018-01-12T12:44:56.297Z,6.05
2018-01-12T12:45:56.213Z,6.12
2018-01-12T12:46:56.132Z,6.07
2018-01-12T12:47:56.047Z,6.04
2018-01-12T12:48:55.969Z,6.05
2018-01-12T12:49:55.884Z,6.08
2018-01-12T12:50:55.801Z,6.12
2018-01-12T12:51:55.716Z,6.12
2018-01-12T12:52:55.634Z,6.01
2018-01-12T12:53:55.552Z,6.17
2018-01-12T12:54:55.470Z,6.20
2018-01-12T12:55:55.384Z,6.11
2018-01-12T12:56:55.306Z,6.11
2018-01-12T12:57:55.225Z,6.09
2018-01-12T12:58:55.139Z,6.14
2018-01-12T12:59:55.057Z,6.12
2018-01-12T13:00:54.973Z,6.12
2018-01-12T13:01:54.889Z,6.11
2018-01-12T13:02:54.811Z,6.09
2018-01-12T13:03:54.725Z,6.08
2018-01-12T13:04:54.641Z,6.05
2018-01-12T13:05:54.562Z,6.11
2018-01-12T13:06:54.477Z,6.04
2018-01-12T13:07:54.392Z,5.99
2018-01-12T13:08:54.310Z,6.19
2018-01-12T13:09:54.229Z,6.11
2018-01-12T13:10:54.145Z,6.01
2018-01-12T13:11:54.063Z,6.12
2018-01-12T13:12:53.983Z,6.05
2018-01-12T13:13:53.898Z,6.14
2018-01-12T13:14:53.817Z,6.01
2018-01-12T13:15:53.731Z,6.05
2018-01-12T13:16:53.705Z,6.07
2018-01-12T13:17:53.572Z,6.07
2018-01-12T13:18:53.484Z,6.07
2018-01-12T13:19:53.401Z,6.05
2018-01-12T13:20:53.320Z,6.09
2018-01-12T13:21:53.239Z,6.07
2018-01-12T13:22:53.156Z,6.11
2018-01-12T13:23:53.071Z,5.94
2018-01-12T13:24:52.987Z,6.11
2018-01-12T13:25:52.906Z,5.94
2018-01-12T13:26:52.821Z,6.01
2018-01-12T13:27:52.739Z,6.11
2018-01-12T13:28:52.673Z,6.09
2018-01-12T13:29:52.573Z,6.12
2018-01-12T13:30:52.492Z,6.09